Time;durP1;ratioP1;P1;durP2;ratioP2;P2;SDS_P1;SDS_P2;PMS_P1;PMS_P2;Temp;Humidity;BMP_temperature;BMP_pressure;BME280_temperature;BME280_humidity;BME280_pressure;Samples;Min_cycle;Max_cycle;Signal;HPM_P1;HPM_P2
2023/07/02 00:00:52;;;;;;;8.70;2.80;;;;;;;16.13;69.37;100542.47;7381412;19;19932;-71
2023/07/02 00:03:24;;;;;;;7.15;2.60;;;;;;;16.11;69.43;100543.72;7379443;19;19941;-71
2023/07/02 00:05:56;;;;;;;9.52;2.78;;;;;;;16.08;69.23;100541.47;7382695;19;19941;-71
2023/07/02 00:08:25;;;;;;;7.93;2.47;;;;;;;16.04;68.78;100541.06;7381727;19;19926;-71
2023/07/02 00:10:53;;;;;;;12.10;3.35;;;;;;;16.01;68.87;100536.06;7381194;19;20002;-71
2023/07/02 00:13:22;;;;;;;8.73;2.47;;;;;;;16.02;68.95;100536.88;7382080;19;19977;-72
2023/07/02 00:15:51;;;;;;;7.78;2.65;;;;;;;16.00;68.48;100531.69;7381780;19;19922;-72
2023/07/02 00:18:20;;;;;;;7.93;3.20;;;;;;;16.00;68.42;100533.56;7381768;19;19929;-72
2023/07/02 00:20:52;;;;;;;4.85;2.40;;;;;;;15.98;68.10;100539.22;7383676;19;19928;-72
2023/07/02 00:23:21;;;;;;;9.18;3.10;;;;;;;15.96;67.90;100540.50;7378913;19;19933;-72
2023/07/02 00:25:49;;;;;;;9.48;2.97;;;;;;;15.93;68.60;100544.47;7379962;19;19926;-72
2023/07/02 00:28:18;;;;;;;8.57;3.28;;;;;;;15.92;67.71;100542.81;7378422;19;19918;-72
2023/07/02 00:30:47;;;;;;;14.32;3.53;;;;;;;15.89;67.67;100541.38;7380717;19;20001;-72
2023/07/02 00:33:15;;;;;;;11.50;3.50;;;;;;;15.87;67.95;100548.09;7379444;19;20025;-72
2023/07/02 00:35:44;;;;;;;11.88;3.00;;;;;;;15.85;67.88;100540.16;7380368;19;20311;-72
2023/07/02 00:38:15;;;;;;;12.30;3.30;;;;;;;15.83;67.45;100550.38;7378637;19;19990;-71
2023/07/02 00:40:44;;;;;;;10.63;3.70;;;;;;;15.83;67.46;100538.72;7381042;19;19922;-72
2023/07/02 00:43:13;;;;;;;10.50;3.83;;;;;;;15.79;67.35;100540.22;7380545;19;19919;-72
2023/07/02 00:45:42;;;;;;;12.60;4.20;;;;;;;15.77;67.47;100550.44;7381045;19;19926;-72
2023/07/02 00:48:11;;;;;;;9.50;3.67;;;;;;;15.72;67.68;100550.25;7377593;19;19934;-72
2023/07/02 00:50:41;;;;;;;15.88;4.07;;;;;;;15.71;67.66;100549.44;7379431;19;20511;-72
2023/07/02 00:53:10;;;;;;;12.18;4.00;;;;;;;15.65;67.78;100544.88;7376622;19;19926;-71
2023/07/02 00:55:41;;;;;;;14.70;4.45;;;;;;;15.63;67.02;100546.13;7379378;19;19961;-72
2023/07/02 00:58:10;;;;;;;11.38;3.63;;;;;;;15.60;67.39;100539.28;7379084;19;19915;-72
2023/07/02 01:00:39;;;;;;;12.50;4.15;;;;;;;15.58;67.74;100535.09;7380426;19;19923;-71
2023/07/02 01:03:08;;;;;;;12.57;4.07;;;;;;;15.53;67.72;100533.06;7378834;19;20380;-71
2023/07/02 01:05:37;;;;;;;10.93;3.28;;;;;;;15.50;67.79;100528.03;7379340;19;20348;-72
2023/07/02 01:08:06;;;;;;;12.25;4.00;;;;;;;15.46;67.78;100537.63;7377745;19;19927;-72
2023/07/02 01:10:35;;;;;;;12.88;4.65;;;;;;;15.41;67.39;100530.13;7379107;19;19922;-72
2023/07/02 01:13:11;;;;;;;11.43;3.50;;;;;;;15.38;67.14;100522.44;7378473;19;19915;-72
2023/07/02 01:15:40;;;;;;;13.35;4.80;;;;;;;15.36;67.38;100526.41;7379721;19;19934;-72
2023/07/02 01:18:10;;;;;;;18.73;4.93;;;;;;;15.34;67.77;100528.50;7379133;19;19993;-72
2023/07/02 01:20:42;;;;;;;16.45;4.32;;;;;;;15.30;67.72;100524.56;7383545;19;20252;-73
2023/07/02 01:23:12;;;;;;;14.63;4.13;;;;;;;15.26;67.61;100524.19;7378088;19;19933;-72
2023/07/02 01:25:41;;;;;;;14.05;4.45;;;;;;;15.24;67.66;100530.84;7378213;19;19926;-72
2023/07/02 01:28:13;;;;;;;15.25;4.45;;;;;;;15.20;67.81;100519.59;7377186;19;19978;-71
2023/07/02 01:30:42;;;;;;;11.57;4.22;;;;;;;15.19;68.12;100528.78;7379039;19;19966;-72
2023/07/02 01:33:11;;;;;;;16.35;4.47;;;;;;;15.17;67.80;100517.31;7379100;19;19955;-72
2023/07/02 01:35:42;;;;;;;14.55;4.85;;;;;;;15.14;67.95;100523.19;7379837;19;19922;-72
2023/07/02 01:38:11;;;;;;;16.55;4.72;;;;;;;15.10;68.09;100515.69;7377699;19;19933;-71
2023/07/02 01:40:39;;;;;;;16.50;4.57;;;;;;;15.05;68.44;100524.47;7379123;19;20344;-72
2023/07/02 01:43:08;;;;;;;17.08;4.70;;;;;;;15.03;68.29;100523.84;7377876;19;19922;-72
2023/07/02 01:45:37;;;;;;;14.45;4.47;;;;;;;14.99;68.59;100522.59;7377633;19;19925;-72
2023/07/02 01:48:06;;;;;;;15.02;4.78;;;;;;;14.95;68.74;100518.66;7375699;19;19926;-72
2023/07/02 01:50:35;;;;;;;15.90;4.25;;;;;;;14.93;68.87;100526.16;7378073;19;19925;-72
2023/07/02 01:53:06;;;;;;;16.70;5.93;;;;;;;14.88;69.03;100526.00;7376147;19;19941;-72
2023/07/02 01:55:35;;;;;;;13.82;5.03;;;;;;;14.85;69.37;100527.25;7379573;19;19926;-72
2023/07/02 01:58:03;;;;;;;12.32;4.55;;;;;;;14.81;69.44;100531.44;7376418;19;19933;-71
2023/07/02 02:00:32;;;;;;;17.13;4.45;;;;;;;14.76;69.74;100531.22;7377267;19;19930;-72
2023/07/02 02:03:01;;;;;;;11.70;4.65;;;;;;;14.73;69.82;100531.66;7376607;19;20490;-72
2023/07/02 02:05:29;;;;;;;13.60;4.30;;;;;;;14.70;69.74;100523.13;7383441;19;20433;-72
2023/07/02 02:07:58;;;;;;;15.52;4.50;;;;;;;14.66;69.98;100535.44;7381188;19;20409;-72
2023/07/02 02:10:29;;;;;;;11.15;4.18;;;;;;;14.64;69.87;100537.50;7386138;19;19929;-72
2023/07/02 02:12:58;;;;;;;19.13;4.50;;;;;;;14.61;69.91;100541.50;7383351;19;19990;-71
2023/07/02 02:15:30;;;;;;;15.27;4.95;;;;;;;14.59;69.90;100540.00;7381111;19;20562;-72
2023/07/02 02:17:59;;;;;;;15.82;5.07;;;;;;;14.56;69.90;100546.72;7382922;19;19923;-72
2023/07/02 02:20:28;;;;;;;18.98;4.78;;;;;;;14.54;70.09;100543.34;7388278;19;19914;-72
2023/07/02 02:22:56;;;;;;;16.10;4.63;;;;;;;14.51;69.92;100547.34;7383284;19;19994;-73
2023/07/02 02:25:29;;;;;;;19.02;5.32;;;;;;;14.49;70.00;100549.44;7383773;19;19930;-72
2023/07/02 02:27:57;;;;;;;17.90;5.60;;;;;;;14.46;69.98;100547.13;7382550;19;19919;-72
2023/07/02 02:30:26;;;;;;;13.70;4.38;;;;;;;14.44;70.16;100554.66;7383688;19;19914;-72
2023/07/02 02:32:55;;;;;;;20.65;4.70;;;;;;;14.42;70.07;100555.88;7383940;19;19918;-72
2023/07/02 02:35:23;;;;;;;16.75;4.85;;;;;;;14.38;70.29;100552.78;7383133;19;20364;-72
2023/07/02 02:37:52;;;;;;;13.93;5.45;;;;;;;14.37;70.06;100553.81;7384480;19;19922;-72
2023/07/02 02:40:21;;;;;;;16.35;5.35;;;;;;;14.31;70.30;100551.91;7383341;19;20412;-74
2023/07/02 02:42:52;;;;;;;17.20;5.28;;;;;;;14.31;70.40;100549.22;7381763;19;19915;-72
2023/07/02 02:45:21;;;;;;;14.23;4.93;;;;;;;14.28;70.28;100556.94;7382630;19;20009;-72
2023/07/02 02:47:49;;;;;;;19.52;5.28;;;;;;;14.24;70.44;100548.34;7383474;19;19989;-73
2023/07/02 02:50:18;;;;;;;16.15;4.88;;;;;;;14.20;70.35;100547.09;7383234;19;19926;-73
2023/07/02 02:52:47;;;;;;;20.60;5.63;;;;;;;14.18;70.60;100554.63;7382993;19;19919;-73
2023/07/02 02:55:16;;;;;;;13.88;5.03;;;;;;;14.14;70.53;100561.50;7382586;19;19922;-73
2023/07/02 02:57:45;;;;;;;20.05;6.03;;;;;;;14.09;71.00;100550.44;7381629;19;19918;-72
2023/07/02 03:00:17;;;;;;;13.63;4.95;;;;;;;14.04;70.90;100555.66;7383256;19;19923;-72
2023/07/02 03:02:46;;;;;;;25.77;6.40;;;;;;;14.00;71.16;100551.69;7381723;19;19957;-72
2023/07/02 03:05:16;;;;;;;15.65;4.60;;;;;;;13.96;71.28;100550.44;7381943;19;19922;-72
2023/07/02 03:07:45;;;;;;;18.13;5.60;;;;;;;13.93;71.54;100549.00;7379136;19;19918;-72
2023/07/02 03:10:13;;;;;;;17.48;4.70;;;;;;;13.91;71.54;100553.75;7383394;19;19922;-73
2023/07/02 03:12:42;;;;;;;18.35;5.78;;;;;;;13.89;71.32;100555.81;7379825;19;20315;-73
2023/07/02 03:15:11;;;;;;;19.70;5.82;;;;;;;13.85;71.84;100556.47;7381857;19;20506;-72
2023/07/02 03:17:43;;;;;;;18.42;5.55;;;;;;;13.80;71.81;100557.09;7382280;19;19929;-73
2023/07/02 03:20:12;;;;;;;21.40;4.82;;;;;;;13.77;72.21;100554.78;7386746;19;19929;-72
2023/07/02 03:22:41;;;;;;;19.10;5.05;;;;;;;13.74;72.16;100559.78;7380915;19;19925;-72
2023/07/02 03:25:10;;;;;;;18.55;5.28;;;;;;;13.69;72.02;100559.53;7381414;19;20002;-72
2023/07/02 03:27:39;;;;;;;21.52;5.72;;;;;;;13.67;72.10;100564.34;7381389;19;19929;-72
2023/07/02 03:30:10;;;;;;;16.33;4.65;;;;;;;13.63;72.08;100561.22;7380285;19;20727;-72
2023/07/02 03:32:39;;;;;;;16.73;4.97;;;;;;;13.61;72.31;100566.00;7381983;19;19924;-72
2023/07/02 03:35:10;;;;;;;18.92;5.65;;;;;;;13.60;72.24;100564.31;7382234;19;20371;-73
2023/07/02 03:37:41;;;;;;;;;;;;;;;13.44;73.42;100570.09;7384735;19;19922;-72
2023/07/02 03:40:11;;;;;;;15.75;4.65;;;;;;;13.55;72.75;100564.09;7384176;19;19944;-72
2023/07/02 03:42:40;;;;;;;14.43;5.78;;;;;;;13.54;72.47;100568.69;7379284;19;19925;-72
2023/07/02 03:45:10;;;;;;;15.13;4.65;;;;;;;13.55;72.32;100567.63;7382748;19;20923;-72
2023/07/02 03:47:38;;;;;;;14.10;5.03;;;;;;;13.55;72.56;100570.34;7380342;19;19919;-72
2023/07/02 03:50:12;;;;;;;16.77;5.32;;;;;;;13.54;72.67;100568.69;7379524;19;19928;-72
2023/07/02 03:52:40;;;;;;;13.48;4.95;;;;;;;13.53;72.69;100572.44;7380574;19;19929;-72
2023/07/02 03:55:10;;;;;;;17.13;6.15;;;;;;;13.54;72.53;100563.28;7381882;19;19915;-72
2023/07/02 03:57:39;;;;;;;20.38;5.03;;;;;;;13.53;72.75;100569.72;7378464;19;19928;-72
2023/07/02 04:00:10;;;;;;;19.48;4.85;;;;;;;13.57;72.69;100579.09;7380727;19;20367;-72
2023/07/02 04:02:38;;;;;;;21.73;5.40;;;;;;;13.55;72.69;100589.28;7378632;19;19930;-73
2023/07/02 04:05:10;;;;;;;18.08;4.82;;;;;;;13.55;72.84;100583.88;7380209;19;19929;-72
2023/07/02 04:07:39;;;;;;;21.70;5.90;;;;;;;13.56;72.56;100577.44;7381143;19;20486;-73
2023/07/02 04:10:09;;;;;;;15.73;4.78;;;;;;;13.56;72.63;100585.53;7378667;19;20567;-72
2023/07/02 04:12:38;;;;;;;12.98;4.90;;;;;;;13.59;72.98;100589.75;7380214;19;19926;-72
2023/07/02 04:15:08;;;;;;;20.45;6.28;;;;;;;13.60;72.74;100585.97;7382433;19;19982;-72
2023/07/02 04:17:37;;;;;;;17.48;5.60;;;;;;;13.61;72.79;100593.06;7380391;19;19938;-72
2023/07/02 04:20:07;;;;;;;21.35;4.93;;;;;;;13.62;72.93;100587.44;7386891;19;19918;-72
2023/07/02 04:22:39;;;;;;;18.42;5.35;;;;;;;13.66;72.99;100590.59;7380597;19;19919;-72
2023/07/02 04:25:08;;;;;;;13.95;4.88;;;;;;;13.69;72.91;100605.56;7380083;19;19933;-73
2023/07/02 04:27:37;;;;;;;25.90;6.03;;;;;;;13.73;72.81;100598.69;7377412;19;19919;-71
2023/07/02 04:30:09;;;;;;;22.33;6.57;;;;;;;13.75;72.56;100593.94;7380664;19;20410;-72
2023/07/02 04:32:39;;;;;;;19.60;4.82;;;;;;;13.75;72.70;100589.34;7379559;19;19946;-72
2023/07/02 04:35:08;;;;;;;16.45;5.88;;;;;;;13.78;72.61;100596.22;7383633;19;20807;-72
2023/07/02 04:37:39;;;;;;;18.98;6.03;;;;;;;13.80;73.10;100594.16;7379766;19;19924;-72
2023/07/02 04:40:10;;;;;;;18.48;5.30;;;;;;;13.84;72.69;100601.66;7380100;19;19989;-73
2023/07/02 04:42:39;;;;;;;19.52;6.45;;;;;;;13.87;72.70;100597.72;7378208;19;19943;-72
2023/07/02 04:45:09;;;;;;;14.50;4.43;;;;;;;13.91;72.84;100601.66;7379811;19;20437;-72
2023/07/02 04:47:38;;;;;;;22.33;5.40;;;;;;;13.92;72.66;100604.19;7380241;19;20506;-73
2023/07/02 04:50:08;;;;;;;19.48;6.10;;;;;;;13.96;72.61;100608.16;7378171;19;19922;-72
2023/07/02 04:52:39;;;;;;;12.70;5.20;;;;;;;14.00;72.52;100600.44;7377938;19;19915;-72
2023/07/02 04:55:08;;;;;;;16.70;5.30;;;;;;;14.03;72.16;100610.84;7380635;19;19994;-72
2023/07/02 04:57:37;;;;;;;16.52;5.43;;;;;;;14.07;72.44;100610.25;7378360;19;19922;-72
2023/07/02 05:00:08;;;;;;;16.05;4.95;;;;;;;14.15;72.07;100622.75;7378740;19;19919;-73
2023/07/02 05:02:37;;;;;;;14.88;5.03;;;;;;;14.19;72.04;100626.75;7378122;19;19986;-73
2023/07/02 05:05:06;;;;;;;24.48;6.22;;;;;;;14.22;72.10;100623.59;7378983;19;20241;-72
2023/07/02 05:07:35;;;;;;;23.30;5.15;;;;;;;14.22;72.11;100615.47;7377159;19;20015;-72
2023/07/02 05:10:07;;;;;;;20.38;5.40;;;;;;;14.22;72.41;100618.19;7378661;19;19930;-72
2023/07/02 05:12:36;;;;;;;23.20;6.13;;;;;;;14.18;72.18;100625.06;7379126;19;19936;-72
2023/07/02 05:15:05;;;;;;;16.95;5.03;;;;;;;14.13;72.91;100622.13;7380801;19;22770;-73
2023/07/02 05:17:35;;;;;;;19.10;4.82;;;;;;;14.11;72.56;100621.50;7378799;19;19922;-74
2023/07/02 05:20:04;;;;;;;15.82;5.13;;;;;;;14.12;73.37;100625.03;7383228;19;19934;-73
2023/07/02 05:22:33;;;;;;;13.40;4.80;;;;;;;14.13;72.96;100616.72;7377651;19;19926;-73
2023/07/02 05:25:02;;;;;;;22.92;5.05;;;;;;;14.16;72.90;100616.28;7378491;19;19988;-73
2023/07/02 05:27:33;;;;;;;18.80;5.97;;;;;;;14.18;73.33;100622.34;7379384;19;20404;-73
2023/07/02 05:30:02;;;;;;;20.58;5.10;;;;;;;14.22;72.63;100620.06;7377288;19;19922;-72
2023/07/02 05:32:32;;;;;;;17.35;5.30;;;;;;;14.26;72.79;100616.72;7377922;19;19921;-73
2023/07/02 05:35:00;;;;;;;21.98;4.82;;;;;;;14.32;72.67;100623.22;7380589;19;19930;-73
2023/07/02 05:37:29;;;;;;;20.45;5.32;;;;;;;14.39;72.23;100621.34;7378134;19;19926;-73
2023/07/02 05:39:58;;;;;;;17.05;5.30;;;;;;;14.48;71.99;100626.38;7382977;19;20066;-72
2023/07/02 05:42:26;;;;;;;19.52;5.28;;;;;;;14.59;71.75;100629.47;7383251;19;19922;-72
2023/07/02 05:44:58;;;;;;;15.95;4.43;;;;;;;14.71;71.44;100625.13;7384321;19;19944;-72
2023/07/02 05:47:26;;;;;;;16.40;5.22;;;;;;;14.85;71.15;100629.47;7385023;19;19939;-72
2023/07/02 05:49:55;;;;;;;16.33;4.78;;;;;;;14.99;70.64;100631.13;7384443;19;19926;-72
2023/07/02 05:52:24;;;;;;;12.88;4.60;;;;;;;15.09;70.16;100634.25;7381855;19;19919;-72
2023/07/02 05:54:52;;;;;;;15.90;5.28;;;;;;;15.18;70.30;100629.41;7385561;19;19928;-72
2023/07/02 05:57:21;;;;;;;15.95;5.20;;;;;;;15.24;69.97;100639.41;7383655;19;20303;-73
2023/07/02 05:59:50;;;;;;;19.08;5.28;;;;;;;15.25;69.79;100638.38;7383656;19;19929;-72
2023/07/02 06:02:21;;;;;;;15.85;4.65;;;;;;;15.20;68.43;100646.31;7380059;19;19922;-72
2023/07/02 06:04:50;;;;;;;18.45;4.40;;;;;;;15.17;69.35;100650.28;7385028;19;19974;-72
2023/07/02 06:07:18;;;;;;;13.13;4.78;;;;;;;15.21;69.49;100650.69;7382914;19;19933;-72
2023/07/02 06:09:47;;;;;;;16.38;4.75;;;;;;;15.21;68.93;100664.25;7384250;19;20631;-72
2023/07/02 06:12:16;;;;;;;13.10;3.55;;;;;;;15.23;67.94;100660.28;7384060;19;19919;-72
2023/07/02 06:14:45;;;;;;;15.90;4.13;;;;;;;15.34;67.32;100656.94;7384864;19;19986;-72
2023/07/02 06:17:13;;;;;;;21.75;4.50;;;;;;;15.47;67.06;100656.03;7383852;19;19942;-72
2023/07/02 06:19:45;;;;;;;14.77;3.97;;;;;;;15.58;66.83;100660.00;7389246;19;19925;-72
2023/07/02 06:22:13;;;;;;;10.88;4.13;;;;;;;15.67;66.40;100664.13;7382267;19;19940;-72
2023/07/02 06:24:42;;;;;;;14.52;5.13;;;;;;;15.71;65.09;100668.09;7383049;19;20395;-72
2023/07/02 06:27:11;;;;;;;17.92;4.85;;;;;;;15.74;65.87;100660.38;7381999;19;19922;-73
2023/07/02 06:29:39;;;;;;;10.80;3.88;;;;;;;15.79;65.84;100657.81;7381455;19;19926;-71
2023/07/02 06:32:09;;;;;;;10.85;3.90;;;;;;;15.84;65.26;100682.44;7382483;19;19926;-72
2023/07/02 06:34:38;;;;;;;12.77;3.95;;;;;;;15.83;64.76;100674.53;7383997;19;19949;-73
2023/07/02 06:37:10;;;;;;;8.98;3.65;;;;;;;15.84;64.07;100684.31;7383529;19;19922;-73
2023/07/02 06:39:39;;;;;;;16.70;3.65;;;;;;;15.81;64.29;100672.03;7383717;19;19927;-72
2023/07/02 06:42:07;;;;;;;13.23;3.55;;;;;;;15.78;64.26;100671.63;7383937;19;19936;-73
2023/07/02 06:44:36;;;;;;;12.00;4.15;;;;;;;15.78;64.20;100693.34;7382899;19;19925;-72
2023/07/02 06:47:05;;;;;;;14.35;4.43;;;;;;;15.78;64.32;100694.19;7380811;19;20306;-72
2023/07/02 06:49:34;;;;;;;12.77;3.88;;;;;;;15.81;64.72;100682.88;7380661;19;19990;-72
2023/07/02 06:52:02;;;;;;;12.25;3.72;;;;;;;15.86;65.01;100696.66;7382079;19;19937;-72
2023/07/02 06:54:34;;;;;;;13.65;3.78;;;;;;;15.91;63.70;100696.03;7383930;19;19930;-72
2023/07/02 06:57:03;;;;;;;11.05;3.25;;;;;;;15.92;64.23;100696.84;7382881;19;19982;-72
2023/07/02 06:59:32;;;;;;;14.30;4.28;;;;;;;15.94;63.66;100736.34;7381586;19;20341;-72
2023/07/02 07:02:00;;;;;;;11.52;3.65;;;;;;;15.98;63.39;100710.41;7381988;19;19977;-72
2023/07/02 07:04:29;;;;;;;11.02;3.92;;;;;;;16.02;63.16;100702.63;7385539;19;19931;-72
2023/07/02 07:06:58;;;;;;;11.90;3.55;;;;;;;16.08;61.95;100696.34;7385322;19;19914;-72
2023/07/02 07:09:26;;;;;;;11.00;3.10;;;;;;;16.11;62.39;100704.91;7381720;19;19926;-72
2023/07/02 07:11:58;;;;;;;12.30;3.22;;;;;;;16.19;61.24;100696.50;7381401;19;20562;-73
2023/07/02 07:14:26;;;;;;;11.27;4.28;;;;;;;16.23;61.37;100719.47;7383619;19;19918;-72
2023/07/02 07:16:55;;;;;;;11.70;3.83;;;;;;;16.27;61.15;100720.69;7381889;19;20352;-72
2023/07/02 07:19:24;;;;;;;11.88;3.30;;;;;;;16.33;61.12;100708.13;7384663;19;19919;-72
2023/07/02 07:21:53;;;;;;;10.35;4.82;;;;;;;16.40;60.33;100724.38;7380825;19;19925;-72
2023/07/02 07:24:21;;;;;;;15.18;4.13;;;;;;;16.49;60.93;100710.31;7381062;19;19923;-72
2023/07/02 07:26:50;;;;;;;11.57;3.83;;;;;;;16.59;59.61;100723.47;7380610;19;19928;-72
2023/07/02 07:29:21;;;;;;;9.35;3.58;;;;;;;16.65;59.19;100715.25;7381909;19;20467;-72
2023/07/02 07:31:50;;;;;;;11.73;3.63;;;;;;;16.72;59.93;100728.81;7379725;19;20397;-73
2023/07/02 07:34:19;;;;;;;11.98;3.13;;;;;;;16.78;58.77;100734.19;7381599;19;19926;-73
2023/07/02 07:36:48;;;;;;;13.27;2.83;;;;;;;16.81;58.29;100727.50;7381092;19;19927;-72
2023/07/02 07:39:17;;;;;;;9.98;2.53;;;;;;;16.81;58.25;100715.78;7380937;19;19926;-72
2023/07/02 07:41:49;;;;;;;7.95;3.33;;;;;;;16.80;56.59;100728.53;7381064;19;19922;-72
2023/07/02 07:44:20;;;;;;;10.88;2.42;;;;;;;16.85;57.85;100722.44;7380651;19;19918;-72
2023/07/02 07:46:49;;;;;;;6.65;2.28;;;;;;;16.92;57.45;100753.13;7383160;19;20328;-72
2023/07/02 07:49:18;;;;;;;11.18;2.25;;;;;;;16.97;57.35;100726.09;7382822;19;19926;-73
2023/07/02 07:51:46;;;;;;;8.10;2.10;;;;;;;16.96;56.65;100732.59;7381023;19;19953;-72
2023/07/02 07:54:15;;;;;;;6.30;2.10;;;;;;;17.03;56.39;100736.09;7381038;19;19919;-72
2023/07/02 07:56:44;;;;;;;8.75;2.47;;;;;;;17.05;55.70;100732.09;7379033;19;19952;-73
2023/07/02 07:59:14;;;;;;;9.75;1.77;;;;;;;17.03;55.17;100739.66;7378110;19;19919;-72
2023/07/02 08:01:46;;;;;;;11.10;2.03;;;;;;;17.02;54.73;100729.81;7381657;19;19933;-72
2023/07/02 08:04:14;;;;;;;;;;;;;;;16.91;55.41;100741.44;7383693;19;20258;-73
2023/07/02 08:06:43;;;;;;;7.88;2.30;;;;;;;16.98;56.99;100755.81;7382491;19;20367;-73
2023/07/02 08:09:12;;;;;;;9.23;2.25;;;;;;;16.98;56.96;100742.22;7379595;19;19915;-73
2023/07/02 08:11:40;;;;;;;6.72;1.90;;;;;;;17.02;56.41;100748.03;7377831;19;19919;-74
2023/07/02 08:14:09;;;;;;;5.30;1.83;;;;;;;17.05;55.24;100756.59;7380708;19;20027;-73
2023/07/02 08:16:38;;;;;;;9.13;2.22;;;;;;;17.08;55.25;100744.44;7380000;19;19974;-73
2023/07/02 08:19:09;;;;;;;4.57;2.00;;;;;;;17.15;54.23;100747.94;7384100;19;19915;-72
2023/07/02 08:21:38;;;;;;;4.95;2.10;;;;;;;17.23;54.64;100744.91;7380795;19;19961;-73
2023/07/02 08:24:07;;;;;;;6.57;1.90;;;;;;;17.30;54.86;100753.03;7379529;19;20019;-73
2023/07/02 08:26:37;;;;;;;7.82;1.65;;;;;;;17.30;51.64;100753.03;7381046;19;19926;-72
2023/07/02 08:29:05;;;;;;;5.65;1.55;;;;;;;17.29;52.20;100749.47;7381111;19;19926;-73
2023/07/02 08:31:34;;;;;;;5.90;1.70;;;;;;;17.36;52.15;100750.25;7376519;19;20010;-73
2023/07/02 08:34:03;;;;;;;5.65;1.40;;;;;;;17.46;53.04;100757.91;7381160;19;20248;-72
2023/07/02 08:36:35;;;;;;;7.80;1.95;;;;;;;17.59;51.80;100760.53;7379945;19;19919;-72
2023/07/02 08:39:04;;;;;;;7.20;2.05;;;;;;;17.74;52.81;100760.97;7379651;19;19918;-72
2023/07/02 08:41:33;;;;;;;7.25;2.13;;;;;;;17.87;50.93;100752.66;7380133;19;19990;-72
2023/07/02 08:44:04;;;;;;;6.78;1.77;;;;;;;17.85;51.26;100752.06;7380611;19;19918;-72
2023/07/02 08:46:33;;;;;;;8.90;1.50;;;;;;;17.77;51.74;100752.38;7379702;19;19935;-73
2023/07/02 08:49:01;;;;;;;5.43;1.63;;;;;;;17.66;51.38;100759.41;7380776;19;20038;-73
2023/07/02 08:51:30;;;;;;;5.78;1.63;;;;;;;17.54;51.87;100773.94;7377553;19;19925;-73
2023/07/02 08:54:02;;;;;;;7.55;2.20;;;;;;;17.46;52.46;100790.59;7379040;19;19934;-73
2023/07/02 08:56:31;;;;;;;6.82;1.60;;;;;;;17.47;52.48;100770.47;7380257;19;19923;-73
2023/07/02 08:58:59;;;;;;;9.00;2.03;;;;;;;17.53;53.02;100775.00;7379647;19;19919;-73
2023/07/02 09:01:28;;;;;;;6.38;1.80;;;;;;;17.62;52.03;100784.59;7381022;19;19919;-73
2023/07/02 09:04:02;;;;;;;5.95;1.85;;;;;;;17.59;51.60;100772.25;7377584;19;19926;-72
2023/07/02 09:06:30;;;;;;;6.32;1.67;;;;;;;17.58;52.73;100784.22;7378651;19;19918;-73
2023/07/02 09:09:09;;;;;;;6.78;2.03;;;;;;;17.57;51.86;100798.00;7378456;19;19944;-73
2023/07/02 09:11:48;;;;;;;6.65;1.70;;;;;;;17.69;53.08;100788.06;7377948;19;19925;-73
2023/07/02 09:14:27;;;;;;;5.90;1.70;;;;;;;17.71;52.56;100791.41;7377523;19;20343;-73
2023/07/02 09:17:08;;;;;;;4.88;1.80;;;;;;;17.64;51.94;100809.72;7379012;19;20249;-73
2023/07/02 09:19:37;;;;;;;12.23;2.42;;;;;;;17.52;52.87;100814.19;7383718;19;20360;-73
2023/07/02 09:22:07;;;;;;;7.15;2.30;;;;;;;17.44;54.13;100807.16;7378441;19;20897;-74
2023/07/02 09:24:38;;;;;;;11.82;2.72;;;;;;;17.53;54.92;100816.69;7378202;19;19935;-73
2023/07/02 09:27:07;;;;;;;4.97;2.15;;;;;;;17.59;54.83;100824.03;7378202;19;20253;-73
2023/07/02 09:29:37;;;;;;;7.65;2.03;;;;;;;17.64;54.74;100809.72;7379178;19;19926;-73
2023/07/02 09:32:07;;;;;;;7.85;2.53;;;;;;;17.67;54.83;100814.72;7378267;19;19929;-73
2023/07/02 09:34:38;;;;;;;6.55;2.00;;;;;;;17.81;54.78;100810.81;7376967;19;19923;-73
2023/07/02 09:37:08;;;;;;;6.25;2.53;;;;;;;17.84;55.36;100826.69;7378754;19;20874;-73
2023/07/02 09:39:40;;;;;;;7.47;2.50;;;;;;;18.01;55.13;100816.03;7378183;19;20374;-72
2023/07/02 09:42:10;;;;;;;9.50;2.40;;;;;;;18.04;53.28;100870.94;7378510;19;20296;-73
2023/07/02 09:44:40;;;;;;;8.63;2.67;;;;;;;18.11;54.07;100814.47;7378564;19;19969;-73
2023/07/02 09:47:11;;;;;;;11.13;2.70;;;;;;;18.18;54.39;100810.81;7376665;19;19990;-73
2023/07/02 09:49:41;;;;;;;9.57;2.78;;;;;;;18.11;53.19;100789.09;7379152;19;19926;-73
2023/07/02 09:52:12;;;;;;;9.38;2.20;;;;;;;18.27;54.37;100802.09;7374602;19;20350;-73
2023/07/02 09:54:44;;;;;;;7.13;2.03;;;;;;;18.43;53.03;100803.34;7378223;19;20376;-73
2023/07/02 09:57:13;;;;;;;5.80;2.03;;;;;;;18.56;52.38;100808.66;7379020;19;19946;-73
2023/07/02 09:59:43;;;;;;;10.30;3.10;;;;;;;18.65;52.67;100801.81;7377016;19;20547;-73
2023/07/02 10:02:12;;;;;;;5.18;2.35;;;;;;;18.59;51.95;100803.56;7377054;19;19974;-72
2023/07/02 10:04:45;;;;;;;7.95;2.35;;;;;;;18.57;52.18;100811.16;7377516;19;20526;-73
2023/07/02 10:07:14;;;;;;;9.45;2.40;;;;;;;18.55;52.41;100802.34;7376153;19;20350;-73
2023/07/02 10:09:47;;;;;;;7.53;1.90;;;;;;;18.66;51.59;100810.84;7378327;19;19926;-72
2023/07/02 10:12:20;;;;;;;4.53;1.73;;;;;;;18.79;50.33;100827.88;7374515;19;20030;-73
2023/07/02 10:14:50;;;;;;;6.65;2.00;;;;;;;18.90;50.01;100805.22;7378250;19;19922;-73
2023/07/02 10:17:30;;;;;;;3.33;1.67;;;;;;;18.97;49.23;100810.59;7376373;19;19922;-73
2023/07/02 10:20:05;;;;;;;5.20;1.60;;;;;;;19.20;50.26;100818.00;7382125;19;19923;-72
2023/07/02 10:22:45;;;;;;;16.63;2.53;;;;;;;19.34;47.80;100808.50;7375091;19;19922;-73
2023/07/02 10:25:26;;;;;;;7.60;1.73;;;;;;;19.26;49.36;100825.25;7378852;19;19929;-73
2023/07/02 10:27:55;;;;;;;7.53;1.73;;;;;;;19.19;49.89;100814.44;7383771;19;19919;-73
2023/07/02 10:30:33;;;;;;;6.65;2.17;;;;;;;19.03;48.09;100824.13;7382736;19;19927;-74
2023/07/02 10:33:16;;;;;;;9.10;1.90;;;;;;;18.99;49.19;100827.56;7382985;19;19918;-72
2023/07/02 10:35:48;;;;;;;7.57;1.85;;;;;;;19.01;49.56;100828.16;7382135;19;20352;-72
2023/07/02 10:38:18;;;;;;;8.15;1.75;;;;;;;19.19;49.26;100822.63;7383709;19;19926;-73
2023/07/02 10:40:58;;;;;;;6.32;1.85;;;;;;;19.32;47.86;100841.56;7403139;19;19922;-72
2023/07/02 10:43:30;;;;;;;6.10;2.20;;;;;;;19.52;47.93;100826.75;7385392;19;19933;-73
2023/07/02 10:45:59;;;;;;;5.63;1.60;;;;;;;19.64;48.79;100830.31;7383855;19;20006;-73
2023/07/02 10:48:28;;;;;;;10.15;1.90;;;;;;;19.57;48.66;100843.25;7381502;19;19947;-73
2023/07/02 10:50:57;;;;;;;5.78;1.58;;;;;;;19.63;48.29;100832.19;7382259;19;19925;-73
2023/07/02 10:53:26;;;;;;;4.95;1.88;;;;;;;19.72;47.96;100830.78;7382577;19;20303;-73
2023/07/02 10:56:00;;;;;;;7.35;1.83;;;;;;;19.70;46.10;100841.13;7383806;19;19933;-73
2023/07/02 10:58:29;;;;;;;8.30;1.75;;;;;;;19.60;48.26;100846.34;7379314;19;19926;-73
2023/07/02 11:00:58;;;;;;;5.53;2.13;;;;;;;19.54;48.49;100833.66;7384438;19;19926;-73
2023/07/02 11:03:30;;;;;;;8.18;2.10;;;;;;;19.42;49.03;100844.50;7380068;19;19937;-73
2023/07/02 11:05:59;;;;;;;4.28;1.63;;;;;;;19.32;49.63;100841.56;7381391;19;20395;-73
2023/07/02 11:08:37;;;;;;;6.57;1.75;;;;;;;19.11;47.62;100849.47;7379492;19;19978;-73
2023/07/02 11:11:10;;;;;;;8.00;1.95;;;;;;;18.98;47.26;100854.03;7381618;19;19926;-73
2023/07/02 11:13:49;;;;;;;6.53;1.73;;;;;;;18.91;46.90;100850.56;7384021;19;19946;-73
2023/07/02 11:16:26;;;;;;;5.28;1.52;;;;;;;18.83;45.97;100872.72;7382945;19;19954;-73
2023/07/02 11:18:56;;;;;;;3.92;2.00;;;;;;;19.02;46.06;100868.06;7387422;19;19927;-73
2023/07/02 11:21:24;;;;;;;7.20;1.98;;;;;;;18.94;47.18;100855.56;7380444;19;20408;-73
2023/07/02 11:24:03;;;;;;;8.00;1.95;;;;;;;18.94;47.58;100858.28;7378011;19;19929;-73
2023/07/02 11:26:40;;;;;;;8.50;2.30;;;;;;;19.24;47.46;100860.19;7382785;19;20552;-72
2023/07/02 11:29:13;;;;;;;;;;;;;;;19.61;46.52;100871.78;7385044;19;19964;-73
2023/07/02 11:31:41;;;;;;;4.40;1.63;;;;;;;20.06;46.16;100842.78;7381487;19;19915;-74
2023/07/02 11:34:17;;;;;;;5.53;1.90;;;;;;;19.99;45.15;100860.38;7379251;19;19925;-73